createdAt,value
2022-10-31T00:00:49.162Z,12.10
2022-10-31T00:03:17.628Z,12.10
2022-10-31T00:05:47.089Z,12.10
2022-10-31T00:08:15.494Z,12.10
2022-10-31T00:10:44.383Z,12.10
2022-10-31T00:13:13.460Z,12.20
2022-10-31T00:15:43.559Z,12.20
2022-10-31T00:18:12.006Z,12.20
2022-10-31T00:20:40.429Z,12.10
2022-10-31T00:23:08.904Z,12.20
2022-10-31T00:25:38.764Z,12.20
2022-10-31T00:28:08.471Z,12.10
2022-10-31T00:30:36.599Z,12.10
2022-10-31T00:33:06.833Z,12.10
2022-10-31T00:35:34.775Z,12.10
2022-10-31T00:38:02.892Z,12.10
2022-10-31T00:40:30.782Z,12.10
2022-10-31T00:42:59.097Z,12.00
2022-10-31T00:45:27.212Z,12.00
2022-10-31T00:47:55.124Z,12.00
2022-10-31T00:50:24.808Z,11.90
2022-10-31T00:52:52.763Z,12.00
2022-10-31T00:55:20.732Z,11.90
2022-10-31T00:57:49.155Z,12.00
2022-10-31T01:00:18.000Z,12.00
2022-10-31T01:02:46.170Z,12.00
2022-10-31T01:05:14.291Z,12.00
2022-10-31T01:07:44.110Z,12.00
2022-10-31T01:10:13.142Z,12.00
2022-10-31T01:12:42.058Z,12.00
2022-10-31T01:15:11.373Z,12.10
2022-10-31T01:17:39.345Z,12.10
2022-10-31T01:20:15.578Z,12.10
2022-10-31T01:22:45.030Z,12.10
2022-10-31T01:25:13.098Z,12.10
2022-10-31T01:27:41.064Z,12.10
2022-10-31T01:30:09.907Z,12.10
2022-10-31T01:32:37.847Z,12.10
2022-10-31T01:35:06.183Z,12.10
2022-10-31T01:37:34.471Z,12.10
2022-10-31T01:40:03.836Z,12.10
2022-10-31T01:42:31.793Z,12.10
2022-10-31T01:45:02.888Z,12.00
2022-10-31T01:47:39.616Z,12.00
2022-10-31T01:50:14.213Z,12.00
2022-10-31T01:52:44.873Z,11.90
2022-10-31T01:55:17.897Z,11.90
2022-10-31T01:57:49.109Z,11.90
2022-10-31T02:00:21.665Z,11.90
2022-10-31T02:02:51.394Z,11.80
2022-10-31T02:05:22.847Z,11.80
2022-10-31T02:07:56.606Z,11.80
2022-10-31T02:10:32.406Z,11.80
2022-10-31T02:13:04.606Z,11.80
2022-10-31T02:15:33.931Z,11.80
2022-10-31T02:18:02.634Z,11.70
2022-10-31T02:20:36.466Z,11.80
2022-10-31T02:23:33.652Z,11.80
2022-10-31T02:26:24.642Z,11.70
2022-10-31T02:29:18.558Z,11.70
2022-10-31T02:31:57.263Z,11.70
2022-10-31T02:34:33.608Z,11.70
2022-10-31T02:37:14.537Z,11.70
2022-10-31T02:39:49.449Z,11.60
2022-10-31T02:42:32.229Z,11.60
2022-10-31T02:45:08.357Z,11.60
2022-10-31T02:47:39.658Z,11.60
2022-10-31T02:50:13.136Z,11.60
2022-10-31T02:52:42.329Z,11.60
2022-10-31T02:55:15.330Z,11.50
2022-10-31T02:57:44.506Z,11.50
2022-10-31T03:00:13.226Z,11.40
2022-10-31T03:03:03.582Z,11.40
2022-10-31T03:05:48.400Z,11.40
2022-10-31T03:08:25.665Z,11.40
2022-10-31T03:10:57.895Z,11.40
2022-10-31T03:13:37.689Z,11.40
2022-10-31T03:16:12.116Z,11.40
2022-10-31T03:18:43.779Z,11.30
2022-10-31T03:21:16.461Z,11.40
2022-10-31T03:23:46.702Z,11.30
2022-10-31T03:26:22.948Z,11.30
2022-10-31T03:28:55.673Z,11.20
2022-10-31T03:31:28.673Z,11.20
2022-10-31T03:34:00.655Z,11.20
2022-10-31T03:36:34.382Z,11.20
2022-10-31T03:39:05.598Z,11.20
2022-10-31T03:41:37.690Z,11.20
2022-10-31T03:44:09.790Z,11.20
2022-10-31T03:46:40.956Z,11.20
2022-10-31T03:49:10.977Z,11.20
2022-10-31T03:51:46.575Z,11.20
2022-10-31T03:54:22.642Z,11.30
2022-10-31T03:56:54.845Z,11.20
2022-10-31T03:59:31.486Z,11.20
2022-10-31T04:02:04.114Z,11.20
2022-10-31T04:04:35.223Z,11.20
2022-10-31T04:07:04.777Z,11.20
2022-10-31T04:09:36.932Z,11.20
2022-10-31T04:12:09.481Z,11.20
2022-10-31T04:14:59.317Z,11.10
2022-10-31T04:17:31.809Z,11.10
2022-10-31T04:20:02.786Z,11.10
2022-10-31T04:22:31.150Z,11.10
2022-10-31T04:24:59.287Z,11.00
2022-10-31T04:27:28.141Z,11.00
2022-10-31T04:29:56.087Z,11.00
2022-10-31T04:32:23.984Z,11.00
2022-10-31T04:34:53.681Z,11.10
2022-10-31T04:37:23.276Z,11.10
2022-10-31T04:39:51.291Z,11.10
2022-10-31T04:42:45.110Z,11.00
2022-10-31T04:45:16.812Z,11.10
2022-10-31T04:47:49.884Z,11.00
2022-10-31T04:50:18.093Z,11.00
2022-10-31T04:52:48.643Z,11.00
2022-10-31T04:55:19.807Z,11.00
2022-10-31T04:57:56.698Z,10.80
2022-10-31T05:00:26.633Z,10.70
2022-10-31T05:02:56.651Z,10.80
2022-10-31T05:05:28.880Z,10.80
2022-10-31T05:07:58.563Z,10.80
2022-10-31T05:10:29.164Z,10.70
2022-10-31T05:13:01.730Z,10.70
2022-10-31T05:15:48.583Z,10.60
2022-10-31T05:18:51.377Z,10.60
2022-10-31T05:21:37.767Z,10.60
2022-10-31T05:24:07.972Z,10.60
2022-10-31T05:26:37.416Z,10.50
2022-10-31T05:29:05.607Z,10.50
2022-10-31T05:31:33.753Z,10.50
2022-10-31T05:34:02.705Z,10.50
2022-10-31T05:36:49.025Z,10.50
2022-10-31T05:39:20.421Z,10.50
2022-10-31T05:41:51.112Z,10.50
2022-10-31T05:44:28.073Z,10.50
2022-10-31T05:47:12.531Z,10.40
2022-10-31T05:50:15.397Z,10.30
2022-10-31T05:52:57.571Z,10.30
2022-10-31T05:55:35.004Z,10.30
2022-10-31T05:58:23.532Z,10.40
2022-10-31T06:01:04.950Z,10.30
2022-10-31T06:03:33.498Z,10.30
2022-10-31T06:06:04.218Z,10.30
2022-10-31T06:08:37.128Z,10.30
2022-10-31T06:11:14.904Z,10.30
2022-10-31T06:14:01.720Z,10.20
2022-10-31T06:53:39.996Z,10.10
2022-10-31T06:56:10.494Z,10.60
2022-10-31T06:58:44.993Z,10.70
2022-10-31T07:01:14.603Z,10.70
2022-10-31T07:03:42.718Z,10.80
2022-10-31T07:06:10.743Z,10.80
2022-10-31T07:08:40.383Z,10.90
2022-10-31T07:11:08.831Z,11.00
2022-10-31T07:13:36.815Z,11.00
2022-10-31T07:16:12.857Z,11.00
2022-10-31T07:18:41.604Z,11.00
2022-10-31T07:21:10.508Z,11.10
2022-10-31T07:23:38.470Z,11.10
2022-10-31T07:26:24.710Z,11.20
2022-10-31T07:28:53.457Z,11.20
2022-10-31T07:31:26.000Z,11.30
2022-10-31T07:33:56.877Z,11.30
2022-10-31T07:36:30.562Z,11.30
2022-10-31T07:39:03.740Z,11.30
2022-10-31T07:41:34.174Z,11.30
2022-10-31T07:44:02.101Z,11.40
2022-10-31T07:46:49.754Z,11.50
2022-10-31T07:49:36.003Z,11.60
2022-10-31T07:52:29.979Z,11.60
2022-10-31T07:55:16.984Z,11.80
2022-10-31T07:57:57.923Z,11.90
2022-10-31T08:00:26.067Z,12.00
2022-10-31T08:03:02.729Z,12.10
2022-10-31T08:05:49.808Z,12.20
2022-10-31T08:08:38.353Z,12.30
2022-10-31T08:11:08.243Z,12.30
2022-10-31T08:13:36.191Z,12.50
2022-10-31T08:16:05.598Z,12.50
2022-10-31T08:18:38.920Z,12.60
2022-10-31T08:21:11.343Z,12.70
2022-10-31T08:23:39.318Z,12.80
2022-10-31T08:26:07.556Z,12.90
2022-10-31T08:28:35.616Z,13.10
2022-10-31T08:31:05.670Z,13.20
2022-10-31T08:33:43.682Z,13.20
2022-10-31T08:36:31.641Z,13.40
2022-10-31T08:39:16.265Z,13.50
2022-10-31T08:41:44.208Z,13.60
2022-10-31T08:44:14.652Z,13.70
2022-10-31T08:46:42.551Z,13.70
2022-10-31T08:49:11.939Z,13.90
2022-10-31T08:51:42.357Z,14.00
2022-10-31T08:54:10.576Z,14.00
2022-10-31T08:56:58.763Z,14.10
2022-10-31T08:59:47.907Z,14.10
2022-10-31T09:02:15.893Z,14.10
2022-10-31T09:04:45.568Z,14.10
2022-10-31T09:07:21.540Z,14.10
2022-10-31T09:09:49.953Z,14.10
2022-10-31T09:12:20.062Z,14.10
2022-10-31T09:15:20.194Z,14.10
2022-10-31T09:17:52.696Z,14.20
2022-10-31T09:20:24.867Z,14.20
2022-10-31T09:22:58.931Z,14.30
2022-10-31T09:25:27.816Z,14.40
2022-10-31T09:28:17.759Z,14.50
2022-10-31T09:30:49.189Z,14.70
2022-10-31T09:33:23.693Z,14.70
2022-10-31T09:36:11.133Z,14.90
2022-10-31T09:38:41.910Z,15.00
2022-10-31T09:41:20.536Z,15.00
2022-10-31T09:43:57.979Z,15.10
2022-10-31T09:46:34.328Z,15.20
2022-10-31T09:49:25.302Z,15.30
2022-10-31T09:52:02.301Z,15.40
2022-10-31T09:54:36.102Z,15.50
2022-10-31T09:57:04.808Z,15.70
2022-10-31T09:59:39.346Z,15.80
2022-10-31T10:02:15.485Z,15.90
2022-10-31T10:04:48.952Z,16.00
2022-10-31T10:07:27.828Z,16.00
2022-10-31T10:10:17.870Z,16.10
2022-10-31T10:13:31.659Z,16.20
2022-10-31T10:16:16.642Z,16.30
2022-10-31T10:18:55.091Z,16.30
2022-10-31T10:21:34.545Z,16.30
2022-10-31T10:24:14.787Z,16.40
2022-10-31T10:26:47.103Z,16.40
2022-10-31T10:29:31.019Z,16.40
2022-10-31T10:32:03.370Z,16.40
2022-10-31T10:34:36.606Z,16.50
2022-10-31T10:37:07.950Z,16.50
2022-10-31T10:39:42.232Z,16.60
2022-10-31T10:42:32.708Z,16.70
2022-10-31T10:45:18.675Z,16.70
2022-10-31T10:47:51.892Z,16.90
2022-10-31T10:50:22.268Z,16.90
2022-10-31T10:53:00.047Z,16.90
2022-10-31T10:55:38.403Z,16.90
2022-10-31T10:58:09.755Z,17.00
2022-10-31T11:00:41.077Z,17.10
2022-10-31T11:03:09.674Z,17.20
2022-10-31T11:05:40.973Z,17.30
2022-10-31T11:08:09.765Z,17.40
2022-10-31T11:10:39.446Z,17.40
2022-10-31T11:13:24.190Z,17.60
2022-10-31T11:15:57.934Z,17.60
2022-10-31T11:18:29.505Z,17.70
2022-10-31T11:20:58.863Z,17.70
2022-10-31T11:23:28.224Z,17.80
2022-10-31T11:25:59.980Z,17.90
2022-10-31T11:28:30.237Z,18.00
2022-10-31T11:31:00.297Z,18.00
2022-10-31T11:33:33.768Z,18.00
2022-10-31T11:36:02.922Z,18.10
2022-10-31T11:38:36.841Z,18.10
2022-10-31T11:41:14.008Z,18.20
2022-10-31T11:43:50.400Z,18.20
2022-10-31T11:46:24.106Z,18.20
2022-10-31T11:48:55.393Z,18.10
2022-10-31T11:51:25.976Z,18.20
2022-10-31T11:53:58.259Z,18.20
2022-10-31T11:56:40.098Z,18.20
2022-10-31T11:59:19.233Z,18.20
2022-10-31T12:01:51.205Z,18.20
2022-10-31T12:04:19.415Z,18.10
2022-10-31T12:06:50.940Z,18.10
2022-10-31T12:09:23.100Z,18.10
2022-10-31T12:12:13.713Z,18.20
2022-10-31T12:14:52.223Z,18.20
2022-10-31T12:17:25.591Z,18.20
2022-10-31T12:20:04.484Z,18.20
2022-10-31T12:22:42.604Z,18.20
2022-10-31T12:25:19.426Z,18.20
2022-10-31T12:28:05.292Z,18.20
2022-10-31T12:30:45.195Z,18.20
2022-10-31T12:33:31.707Z,18.30
2022-10-31T12:36:26.983Z,18.30
2022-10-31T12:39:07.102Z,18.40
2022-10-31T12:41:47.317Z,18.50
2022-10-31T12:44:51.383Z,18.60
2022-10-31T12:47:44.161Z,18.70
2022-10-31T12:50:26.596Z,18.90
2022-10-31T12:53:08.858Z,19.10
2022-10-31T12:56:01.189Z,19.30
2022-10-31T12:58:35.341Z,19.40
2022-10-31T13:01:11.193Z,19.50
2022-10-31T13:03:48.005Z,19.50
2022-10-31T13:06:20.330Z,19.40
2022-10-31T13:08:51.437Z,19.30
2022-10-31T13:11:22.910Z,19.20
2022-10-31T13:13:58.308Z,19.00
2022-10-31T13:16:31.749Z,18.80
2022-10-31T13:19:05.796Z,18.70
2022-10-31T13:21:43.219Z,18.60
2022-10-31T13:24:18.495Z,18.50
2022-10-31T13:26:50.082Z,18.50
2022-10-31T13:29:27.026Z,18.30
2022-10-31T13:31:59.532Z,18.20
2022-10-31T13:34:31.075Z,18.10
2022-10-31T13:37:06.256Z,17.90
2022-10-31T13:39:46.745Z,17.80
2022-10-31T13:42:21.410Z,17.70
2022-10-31T13:44:49.419Z,17.60
2022-10-31T13:47:27.056Z,17.50
2022-10-31T13:50:06.468Z,17.50
2022-10-31T13:52:34.520Z,17.50
2022-10-31T13:55:02.445Z,17.40
2022-10-31T13:57:35.128Z,17.30
2022-10-31T14:00:06.138Z,17.30
2022-10-31T14:02:49.695Z,17.30
2022-10-31T14:05:25.604Z,17.30
2022-10-31T14:07:54.976Z,17.40
2022-10-31T14:10:28.239Z,17.40
2022-10-31T14:13:06.154Z,17.50
2022-10-31T14:15:34.502Z,17.60
2022-10-31T14:18:06.403Z,17.70
2022-10-31T14:20:40.864Z,17.80
2022-10-31T14:23:36.947Z,18.00
2022-10-31T14:26:34.388Z,18.00
2022-10-31T14:29:04.115Z,18.10
2022-10-31T14:31:37.244Z,18.00
2022-10-31T14:34:22.245Z,18.00
2022-10-31T14:37:18.567Z,17.90
2022-10-31T14:39:57.443Z,17.80
2022-10-31T14:42:40.711Z,17.70
2022-10-31T14:45:22.890Z,17.60
2022-10-31T14:48:07.081Z,17.50
2022-10-31T14:50:46.264Z,17.30
2022-10-31T14:53:20.442Z,17.20
2022-10-31T14:55:51.211Z,17.10
2022-10-31T14:58:23.335Z,17.10
2022-10-31T15:00:55.835Z,17.10
2022-10-31T15:03:29.112Z,17.10
2022-10-31T15:06:01.224Z,17.10
2022-10-31T15:08:36.306Z,17.20
2022-10-31T15:11:17.985Z,17.20
2022-10-31T15:13:47.910Z,17.10
2022-10-31T15:16:18.771Z,17.00
2022-10-31T15:18:51.493Z,17.00
2022-10-31T15:21:22.534Z,16.90
2022-10-31T15:23:53.587Z,16.80
2022-10-31T15:26:23.792Z,16.60
2022-10-31T15:29:03.060Z,16.50
2022-10-31T15:31:31.914Z,16.50
2022-10-31T15:34:05.789Z,16.40
2022-10-31T15:36:38.395Z,16.40
2022-10-31T15:39:06.844Z,16.30
2022-10-31T15:41:37.845Z,16.30
2022-10-31T15:44:22.021Z,16.30
2022-10-31T15:46:56.145Z,16.30
2022-10-31T15:49:37.484Z,16.20
2022-10-31T15:52:12.468Z,16.20
2022-10-31T15:54:48.711Z,16.10
2022-10-31T15:57:17.248Z,16.00
2022-10-31T15:59:49.218Z,16.00
2022-10-31T16:02:21.375Z,15.90
2022-10-31T16:04:55.782Z,15.80
2022-10-31T16:07:25.618Z,15.70
2022-10-31T16:09:55.968Z,15.70
2022-10-31T16:12:25.757Z,15.60
2022-10-31T16:14:55.486Z,15.60
2022-10-31T16:17:26.201Z,15.50
2022-10-31T16:19:58.992Z,15.50
2022-10-31T16:22:30.860Z,15.40
2022-10-31T16:25:03.822Z,15.40
2022-10-31T16:27:33.726Z,15.30
2022-10-31T16:30:05.173Z,15.30
2022-10-31T16:32:36.335Z,15.30
2022-10-31T16:35:20.634Z,15.20
2022-10-31T16:37:49.918Z,15.10
2022-10-31T16:40:18.631Z,15.00
2022-10-31T16:42:48.140Z,14.90
2022-10-31T16:45:18.944Z,14.80
2022-10-31T16:47:46.958Z,14.80
2022-10-31T16:50:17.150Z,14.70
2022-10-31T16:53:08.372Z,14.70
2022-10-31T16:55:36.860Z,14.60
2022-10-31T16:58:04.912Z,14.50
2022-10-31T17:00:32.836Z,14.40
2022-10-31T17:03:00.841Z,14.40
2022-10-31T17:05:30.312Z,14.40
2022-10-31T17:07:59.084Z,14.40
2022-10-31T17:10:28.250Z,14.40
2022-10-31T17:12:59.942Z,14.40
2022-10-31T17:15:29.662Z,14.40
2022-10-31T17:17:57.728Z,14.40
2022-10-31T17:20:28.751Z,14.50
2022-10-31T17:22:59.044Z,14.50
2022-10-31T17:25:29.325Z,14.40
2022-10-31T17:27:58.925Z,14.40
2022-10-31T17:30:27.433Z,14.30
2022-10-31T17:32:55.508Z,14.20
2022-10-31T17:35:24.121Z,14.20
2022-10-31T17:37:52.329Z,14.10
2022-10-31T17:40:22.495Z,14.00
2022-10-31T17:42:51.413Z,13.90
2022-10-31T17:45:21.366Z,13.80
2022-10-31T17:47:50.068Z,13.60
2022-10-31T17:50:19.333Z,13.60
2022-10-31T17:52:47.562Z,13.50
2022-10-31T17:55:15.999Z,13.50
2022-10-31T17:57:44.912Z,13.50
2022-10-31T18:00:16.440Z,13.40
2022-10-31T18:02:45.958Z,13.40
2022-10-31T18:05:14.583Z,13.30
2022-10-31T18:07:42.715Z,13.20
2022-10-31T18:10:11.189Z,13.20
2022-10-31T18:12:39.449Z,13.20
2022-10-31T18:15:08.208Z,13.10
2022-10-31T18:17:38.124Z,13.10
2022-10-31T18:20:11.820Z,13.10
2022-10-31T18:22:39.921Z,13.10
2022-10-31T18:25:08.450Z,13.10
2022-10-31T18:27:36.355Z,13.10
2022-10-31T18:30:04.830Z,13.10
2022-10-31T18:32:32.789Z,13.00
2022-10-31T18:35:00.770Z,13.00
2022-10-31T18:37:30.328Z,12.90
2022-10-31T18:39:58.242Z,12.90
2022-10-31T18:42:26.186Z,12.80
2022-10-31T18:44:54.164Z,12.70
2022-10-31T18:47:22.534Z,12.80
2022-10-31T18:49:50.569Z,12.70
2022-10-31T18:52:18.544Z,12.70
2022-10-31T18:54:47.780Z,12.70
2022-10-31T18:57:15.809Z,12.70
2022-10-31T18:59:43.708Z,12.70
2022-10-31T19:02:14.890Z,12.80
2022-10-31T19:04:42.916Z,12.70
2022-10-31T19:07:10.849Z,12.70
2022-10-31T19:09:38.880Z,12.70
2022-10-31T19:12:08.639Z,12.70
2022-10-31T19:14:36.558Z,12.70
2022-10-31T19:17:04.632Z,12.70
2022-10-31T19:19:32.855Z,12.60
2022-10-31T19:22:01.722Z,12.50
2022-10-31T19:24:29.668Z,12.50
2022-10-31T19:26:58.171Z,12.50
2022-10-31T19:29:27.467Z,12.50
2022-10-31T19:31:55.380Z,12.50
2022-10-31T19:34:23.316Z,12.40
2022-10-31T19:36:51.239Z,12.40
2022-10-31T19:39:19.193Z,12.40
2022-10-31T19:41:47.098Z,12.40
2022-10-31T19:44:16.131Z,12.40
2022-10-31T19:46:53.345Z,12.40
2022-10-31T19:49:21.832Z,12.40
2022-10-31T19:51:49.846Z,12.40
2022-10-31T19:54:17.777Z,12.50
2022-10-31T19:56:45.769Z,12.50
2022-10-31T19:59:14.017Z,12.50
2022-10-31T20:01:42.141Z,12.50
2022-10-31T20:04:12.117Z,12.50
2022-10-31T20:06:41.713Z,12.50
2022-10-31T20:09:13.544Z,12.50
2022-10-31T20:11:42.916Z,12.40
2022-10-31T20:14:13.129Z,12.40
2022-10-31T20:16:41.145Z,12.30
2022-10-31T20:19:11.000Z,12.30
2022-10-31T20:21:41.069Z,12.20
2022-10-31T20:24:11.370Z,12.20
2022-10-31T20:26:41.139Z,12.20
2022-10-31T20:29:11.002Z,12.20
2022-10-31T20:31:39.899Z,12.10
2022-10-31T20:34:07.820Z,12.20
2022-10-31T20:36:37.626Z,12.10
